Terminal Aerodrome Forecast
Issued by NWS

Home | Current Version | Previous Version | Graphics & Text | Print | Product List | Glossary On
Versions: 1 2 3 4 5 6 7 8 9 10 11 12 13 14 15 16 17 18 19 20 21 22 23 24 25 26 27 28 29
085
FTUS43 KBIS 131731 AAC
TAFDIK
TAF AMD
KDIK 131731Z 1318/1412 17015KT 5SM -SN BKN007
     FM132300 20010KT 2SM -SN OVC008
     FM140200 24010KT 3SM -SN OVC010
     FM140700 29017KT P6SM VCSH OVC010=

USA.gov is the U.S. government's official web portal to all federal, state and local government web resources and services.